Terminal Aerodrome Forecast
Issued by NWS

Home | Current Version | Previous Version | Text Only | Print | Product List | Glossary On
Versions: 1 2 3 4 5 6 7 8 9 10 11 12 13 14 15 16 17 18 19
000
FTUS46 KEKA 231100 RRA
TAFCEC
TAF
KCEC 231147Z 2312/2412 15010KT P6SM SCT015 BKN025 OVC060
     FM231700 17010G16KT 6SM -RA BKN015 OVC025
     FM240200 17012G20KT 4SM -RA BR BKN008 OVC020
     FM240800 16014G24KT 3SM RA BR BKN010 OVC015=

USA.gov is the U.S. government's official web portal to all federal, state and local government web resources and services.